createdAt,value
2018-01-23T00:01:43.658Z,7.20
2018-01-23T00:04:11.526Z,7.30
2018-01-23T00:06:39.394Z,7.30
2018-01-23T00:09:07.260Z,7.30
2018-01-23T00:11:35.128Z,7.30
2018-01-23T00:14:02.998Z,7.30
2018-01-23T00:16:30.916Z,7.20
2018-01-23T00:18:59.447Z,7.30
2018-01-23T00:21:27.314Z,7.20
2018-01-23T00:23:55.180Z,7.20
2018-01-23T00:26:23.049Z,7.20
2018-01-23T00:28:50.915Z,7.20
2018-01-23T00:31:18.783Z,7.20
2018-01-23T00:33:46.651Z,7.20
2018-01-23T00:36:14.518Z,7.20
2018-01-23T00:38:42.385Z,7.10
2018-01-23T00:41:10.257Z,7.10
2018-01-23T00:43:37.956Z,7.10
2018-01-23T00:46:06.420Z,7.10
2018-01-23T00:48:34.117Z,7.10
2018-01-23T00:51:01.839Z,7.10
2018-01-23T00:53:29.542Z,7.20
2018-01-23T00:55:57.257Z,7.30
2018-01-23T00:58:24.953Z,7.30
2018-01-23T01:00:53.441Z,7.30
2018-01-23T01:03:21.924Z,7.20
2018-01-23T01:05:50.405Z,7.20
2018-01-23T01:08:18.872Z,7.20
2018-01-23T01:10:46.589Z,7.20
2018-01-23T01:13:14.290Z,7.20
2018-01-23T01:15:41.997Z,7.20
2018-01-23T01:18:09.728Z,7.30
2018-01-23T01:20:37.429Z,7.30
2018-01-23T01:23:05.128Z,7.30
2018-01-23T01:25:32.833Z,7.30
2018-01-23T01:28:01.296Z,7.30
2018-01-23T01:30:28.993Z,7.30
2018-01-23T01:32:56.701Z,7.40
2018-01-23T01:35:24.410Z,7.40
2018-01-23T01:37:52.877Z,7.40
2018-01-23T01:40:21.344Z,7.40
2018-01-23T01:42:49.289Z,7.40
2018-01-23T01:45:17.009Z,7.40
2018-01-23T01:47:44.733Z,7.40
2018-01-23T01:50:12.438Z,7.40
2018-01-23T01:52:40.141Z,7.40
2018-01-23T01:55:07.856Z,7.50
2018-01-23T01:57:36.329Z,7.60
2018-01-23T02:00:04.865Z,7.60
2018-01-23T02:02:32.564Z,7.60
2018-01-23T02:05:00.283Z,7.50
2018-01-23T02:07:27.989Z,7.50
2018-01-23T02:09:55.735Z,7.50
2018-01-23T02:12:23.436Z,7.50
2018-01-23T02:14:51.913Z,7.50
2018-01-23T02:17:20.389Z,7.50
2018-01-23T02:19:48.870Z,7.50
2018-01-23T02:22:16.703Z,7.50
2018-01-23T02:24:44.571Z,7.50
2018-01-23T02:27:12.281Z,7.50
2018-01-23T02:29:40.760Z,7.60
2018-01-23T02:32:09.240Z,7.50
2018-01-23T02:34:37.726Z,7.50
2018-01-23T02:37:06.221Z,7.50
2018-01-23T02:39:33.943Z,7.50
2018-01-23T02:42:01.667Z,7.50
2018-01-23T02:44:29.393Z,7.40
2018-01-23T02:46:57.892Z,7.40
2018-01-23T02:49:25.614Z,7.30
2018-01-23T02:51:53.331Z,7.40
2018-01-23T02:54:21.041Z,7.30
2018-01-23T02:56:48.774Z,7.40
2018-01-23T02:59:16.481Z,7.40
2018-01-23T03:01:45.094Z,7.40
2018-01-23T03:04:13.569Z,7.40
2018-01-23T03:06:42.060Z,7.50
2018-01-23T03:09:09.773Z,7.40
2018-01-23T03:11:37.497Z,7.50
2018-01-23T03:14:05.297Z,7.50
2018-01-23T03:16:33.163Z,7.50
2018-01-23T03:19:01.032Z,7.50
2018-01-23T03:21:28.948Z,7.50
2018-01-23T03:23:57.688Z,7.50
2018-01-23T03:26:25.555Z,7.50
2018-01-23T03:28:53.422Z,7.40
2018-01-23T03:31:21.291Z,7.40
2018-01-23T03:33:49.157Z,7.40
2018-01-23T03:36:17.025Z,7.40
2018-01-23T03:38:44.891Z,7.40
2018-01-23T03:41:12.614Z,7.40
2018-01-23T03:43:40.325Z,7.40
2018-01-23T03:46:08.045Z,7.40
2018-01-23T03:48:35.777Z,7.40
2018-01-23T03:51:03.506Z,7.40
2018-01-23T03:53:31.256Z,7.50
2018-01-23T03:55:58.964Z,7.40
2018-01-23T03:58:27.523Z,7.40
2018-01-23T04:00:55.390Z,7.40
2018-01-23T04:03:23.258Z,7.40
2018-01-23T04:05:51.124Z,7.30
2018-01-23T04:08:18.992Z,7.30
2018-01-23T04:10:46.859Z,7.30
2018-01-23T04:13:14.578Z,7.30
2018-01-23T04:15:42.306Z,7.40
2018-01-23T04:18:10.893Z,7.30
2018-01-23T04:20:38.611Z,7.40
2018-01-23T04:23:06.397Z,7.40
2018-01-23T04:25:34.268Z,7.40
2018-01-23T04:28:02.136Z,7.30
2018-01-23T04:30:29.845Z,7.40
2018-01-23T04:32:58.319Z,7.30
2018-01-23T04:35:26.801Z,7.40
2018-01-23T04:37:55.265Z,7.30
2018-01-23T04:40:22.970Z,7.30
2018-01-23T04:42:50.773Z,7.30
2018-01-23T04:45:18.641Z,7.30
2018-01-23T04:47:46.508Z,7.30
2018-01-23T04:50:14.375Z,7.30
2018-01-23T04:52:42.242Z,7.30
2018-01-23T04:55:09.936Z,7.20
2018-01-23T04:57:37.638Z,7.20
2018-01-23T05:00:05.333Z,7.30
2018-01-23T05:02:33.029Z,7.30
2018-01-23T05:05:01.579Z,7.30
2018-01-23T05:07:29.446Z,7.20
2018-01-23T05:09:57.314Z,7.30
2018-01-23T05:12:25.092Z,7.40
2018-01-23T05:14:52.793Z,7.40
2018-01-23T05:17:21.304Z,7.50
2018-01-23T05:19:49.000Z,7.50
2018-01-23T05:22:16.855Z,7.60
2018-01-23T05:24:44.723Z,7.60
2018-01-23T05:27:12.590Z,7.60
2018-01-23T05:29:40.456Z,7.60
2018-01-23T05:32:08.324Z,7.60
2018-01-23T05:34:36.194Z,7.60
2018-01-23T05:37:04.060Z,7.60
2018-01-23T05:39:31.926Z,7.60
2018-01-23T05:41:59.793Z,7.70
2018-01-23T05:44:27.763Z,7.70
2018-01-23T05:46:55.630Z,7.70
2018-01-23T05:49:23.497Z,7.70
2018-01-23T05:51:51.366Z,7.70
2018-01-23T05:54:19.233Z,7.60
2018-01-23T05:56:47.100Z,7.60
2018-01-23T05:59:14.966Z,7.70
2018-01-23T06:01:42.834Z,7.70
2018-01-23T06:04:10.701Z,7.80
2018-01-23T06:06:38.569Z,7.80
2018-01-23T06:09:06.442Z,7.80
2018-01-23T06:11:34.304Z,7.80
2018-01-23T06:14:02.170Z,7.80
2018-01-23T06:16:30.038Z,7.90
2018-01-23T06:18:57.906Z,7.80
2018-01-23T06:21:25.773Z,7.70
2018-01-23T06:23:53.640Z,7.70
2018-01-23T06:26:21.507Z,7.70
2018-01-23T06:28:49.374Z,7.70
2018-01-23T06:31:17.242Z,7.60
2018-01-23T06:33:45.109Z,7.60
2018-01-23T06:36:12.977Z,7.60
2018-01-23T06:38:40.844Z,7.50
2018-01-23T06:41:08.711Z,7.50
2018-01-23T06:43:36.579Z,7.50
2018-01-23T06:46:04.445Z,7.50
2018-01-23T06:48:32.313Z,7.60
2018-01-23T06:51:00.181Z,7.60
2018-01-23T06:53:28.048Z,7.60
2018-01-23T06:55:55.916Z,7.60
2018-01-23T06:58:23.651Z,7.60
2018-01-23T07:00:51.380Z,7.60
2018-01-23T07:03:20.029Z,7.60
2018-01-23T07:05:47.897Z,7.60
2018-01-23T07:08:15.763Z,7.70
2018-01-23T07:10:43.630Z,7.70
2018-01-23T07:13:11.500Z,7.70
2018-01-23T07:15:39.366Z,7.70
2018-01-23T07:18:07.807Z,7.70
2018-01-23T07:20:35.515Z,7.60
2018-01-23T07:23:04.021Z,7.60
2018-01-23T07:25:31.861Z,7.60
2018-01-23T07:28:00.447Z,7.70
2018-01-23T07:30:28.310Z,7.70
2018-01-23T07:32:56.178Z,7.70
2018-01-23T07:35:24.045Z,7.60
2018-01-23T07:37:51.943Z,7.60
2018-01-23T07:40:20.496Z,7.60
2018-01-23T07:42:48.363Z,7.60
2018-01-23T07:45:16.231Z,7.60
2018-01-23T07:47:44.098Z,7.60
2018-01-23T07:50:11.893Z,7.70
2018-01-23T07:52:40.447Z,7.80
2018-01-23T07:55:08.313Z,7.80
2018-01-23T07:57:36.182Z,7.80
2018-01-23T08:00:03.927Z,7.80
2018-01-23T08:02:31.636Z,7.90
2018-01-23T08:04:59.332Z,7.90
2018-01-23T08:07:27.038Z,8.00
2018-01-23T08:09:54.904Z,8.00
2018-01-23T08:12:22.772Z,8.10
2018-01-23T08:14:50.638Z,8.10
2018-01-23T08:17:18.506Z,8.10
2018-01-23T08:19:46.373Z,8.10
2018-01-23T08:22:14.241Z,8.10
2018-01-23T08:24:42.108Z,8.00
2018-01-23T08:27:09.975Z,8.00
2018-01-23T08:29:37.843Z,8.00
2018-01-23T08:32:05.710Z,7.90
2018-01-23T08:34:33.577Z,7.90
2018-01-23T08:37:01.444Z,7.90
2018-01-23T08:39:29.242Z,7.90
2018-01-23T08:41:57.077Z,7.90
2018-01-23T08:44:24.943Z,7.90
2018-01-23T08:46:52.811Z,7.80
2018-01-23T08:49:20.678Z,7.80
2018-01-23T08:51:48.546Z,7.80
2018-01-23T08:54:16.412Z,7.80
2018-01-23T08:56:44.209Z,7.80
2018-01-23T08:59:11.925Z,7.80
2018-01-23T09:01:39.810Z,7.90
2018-01-23T09:04:07.567Z,7.80
2018-01-23T09:06:35.278Z,7.90
2018-01-23T09:09:04.031Z,7.90
2018-01-23T09:11:31.896Z,7.90
2018-01-23T09:13:59.762Z,8.00
2018-01-23T09:16:28.536Z,8.00
2018-01-23T09:18:56.417Z,8.00
2018-01-23T09:21:24.284Z,8.10
2018-01-23T09:23:52.151Z,8.10
2018-01-23T09:26:20.019Z,8.10
2018-01-23T09:28:47.736Z,8.10
2018-01-23T09:31:16.246Z,8.00
2018-01-23T09:33:43.970Z,8.00
2018-01-23T09:36:12.614Z,8.00
2018-01-23T09:38:40.482Z,8.00
2018-01-23T09:41:08.226Z,8.00
2018-01-23T09:43:36.114Z,8.00
2018-01-23T09:46:03.981Z,8.10
2018-01-23T09:48:31.849Z,8.10
2018-01-23T09:50:59.715Z,8.20
2018-01-23T09:53:27.429Z,8.40
2018-01-23T09:55:55.916Z,8.50
2018-01-23T09:58:23.661Z,8.50
2018-01-23T10:00:52.165Z,8.70
2018-01-23T10:03:19.876Z,8.60
2018-01-23T10:05:47.741Z,8.60
2018-01-23T10:08:15.606Z,8.60
2018-01-23T10:10:43.473Z,8.50
2018-01-23T10:13:11.341Z,8.60
2018-01-23T10:15:39.207Z,8.80
2018-01-23T10:18:07.076Z,8.70
2018-01-23T10:20:34.789Z,8.80
2018-01-23T10:23:03.301Z,8.90
2018-01-23T10:25:31.087Z,8.90
2018-01-23T10:27:58.955Z,9.00
2018-01-23T10:30:26.822Z,9.00
2018-01-23T10:32:54.689Z,9.00
2018-01-23T10:35:22.556Z,9.10
2018-01-23T10:37:51.038Z,9.10
2018-01-23T10:40:18.908Z,9.00
2018-01-23T10:42:46.773Z,9.10
2018-01-23T10:45:14.686Z,9.00
2018-01-23T10:47:43.325Z,9.10
2018-01-23T10:50:11.193Z,9.00
2018-01-23T10:52:39.061Z,9.00
2018-01-23T10:55:06.928Z,9.10
2018-01-23T10:57:34.796Z,9.10
2018-01-23T11:00:02.663Z,9.00
2018-01-23T11:02:30.530Z,8.90
2018-01-23T11:04:58.400Z,8.90
2018-01-23T11:07:26.265Z,8.90
2018-01-23T11:09:54.132Z,9.00
2018-01-23T11:12:21.999Z,9.00
2018-01-23T11:14:49.866Z,9.10
2018-01-23T11:17:17.734Z,9.10
2018-01-23T11:19:45.602Z,9.20
2018-01-23T11:22:13.469Z,9.30
2018-01-23T11:24:41.336Z,9.40
2018-01-23T11:27:09.203Z,9.40
2018-01-23T11:29:37.175Z,9.40
2018-01-23T11:32:05.040Z,9.30
2018-01-23T11:34:32.907Z,9.30
2018-01-23T11:37:00.774Z,9.30
2018-01-23T11:39:28.642Z,9.20
2018-01-23T11:41:56.509Z,9.20
2018-01-23T11:44:24.376Z,9.20
2018-01-23T11:46:52.246Z,9.10
2018-01-23T11:49:19.949Z,9.10
2018-01-23T11:51:48.491Z,9.30
2018-01-23T11:54:16.362Z,9.20
2018-01-23T11:56:44.227Z,9.30
2018-01-23T11:59:12.021Z,9.50
2018-01-23T12:01:39.858Z,9.90
2018-01-23T12:04:07.730Z,11.10
2018-01-23T12:06:36.254Z,13.60
2018-01-23T12:09:04.889Z,14.10
2018-01-23T12:11:32.760Z,14.10
2018-01-23T12:14:00.628Z,14.30
2018-01-23T12:16:28.495Z,13.00
2018-01-23T12:18:56.366Z,12.20
2018-01-23T12:21:24.232Z,11.70
2018-01-23T12:23:52.098Z,11.30
2018-01-23T12:26:20.369Z,11.10
2018-01-23T12:28:48.243Z,10.80
2018-01-23T12:31:16.111Z,10.60
2018-01-23T12:33:43.976Z,10.40
2018-01-23T12:36:11.843Z,10.10
2018-01-23T12:38:39.757Z,10.00
2018-01-23T12:41:08.295Z,9.90
2018-01-23T12:43:36.163Z,9.90
2018-01-23T12:46:04.028Z,9.90
2018-01-23T12:48:31.896Z,9.90
2018-01-23T12:50:59.764Z,10.00
2018-01-23T12:53:27.631Z,10.00
2018-01-23T12:55:55.498Z,10.10
2018-01-23T12:58:23.365Z,10.20
2018-01-23T13:00:51.073Z,10.30
2018-01-23T13:03:19.612Z,10.60
2018-01-23T13:05:47.480Z,10.60
2018-01-23T13:08:15.347Z,11.10
2018-01-23T13:10:43.214Z,11.20
2018-01-23T13:13:11.081Z,10.80
2018-01-23T13:15:38.949Z,10.50
2018-01-23T13:18:06.672Z,10.30
2018-01-23T13:20:34.373Z,10.10
2018-01-23T13:23:02.077Z,9.90
2018-01-23T13:25:30.545Z,9.80
2018-01-23T13:27:58.388Z,9.70
2018-01-23T13:30:26.093Z,9.70
2018-01-23T13:32:54.558Z,9.60
2018-01-23T13:35:22.253Z,9.60
2018-01-23T13:37:50.061Z,9.60
2018-01-23T13:40:17.814Z,9.70
2018-01-23T13:42:45.592Z,9.60
2018-01-23T13:45:13.319Z,9.60
2018-01-23T13:47:41.026Z,9.70
2018-01-23T13:50:08.738Z,9.70
2018-01-23T13:52:36.445Z,9.70
2018-01-23T13:55:04.314Z,9.60
2018-01-23T13:57:32.181Z,9.60
2018-01-23T14:00:00.049Z,9.50
2018-01-23T14:02:27.758Z,9.50
2018-01-23T14:04:56.230Z,9.50
2018-01-23T14:07:24.713Z,9.60
2018-01-23T14:09:53.174Z,9.60
2018-01-23T14:12:20.888Z,9.60
2018-01-23T14:14:48.686Z,9.60
2018-01-23T14:17:16.451Z,9.50
2018-01-23T14:19:44.318Z,9.50
2018-01-23T14:22:12.185Z,9.40
2018-01-23T14:24:40.054Z,9.40
2018-01-23T14:27:07.920Z,9.40
2018-01-23T14:29:35.626Z,9.40
2018-01-23T14:32:04.094Z,9.30
2018-01-23T14:34:31.932Z,9.30
2018-01-23T14:36:59.702Z,9.30
2018-01-23T14:39:27.412Z,9.30
2018-01-23T14:41:55.890Z,9.30
2018-01-23T14:44:24.378Z,9.40
2018-01-23T14:46:52.860Z,9.40
2018-01-23T14:49:20.555Z,9.40
2018-01-23T14:51:48.249Z,9.40
2018-01-23T14:54:15.948Z,9.40
2018-01-23T14:56:44.412Z,9.30
2018-01-23T14:59:12.877Z,9.30
2018-01-23T15:01:40.622Z,9.30
2018-01-23T15:04:08.333Z,9.30
2018-01-23T15:06:36.875Z,9.30
2018-01-23T15:09:04.678Z,9.20
2018-01-23T15:11:33.149Z,9.20
2018-01-23T15:14:00.990Z,9.20
2018-01-23T15:16:28.748Z,9.20
2018-01-23T15:18:56.615Z,9.20
2018-01-23T15:21:24.482Z,9.20
2018-01-23T15:23:52.186Z,9.10
2018-01-23T15:26:20.676Z,9.00
2018-01-23T15:28:49.166Z,8.90
2018-01-23T15:31:16.880Z,8.90
2018-01-23T15:33:44.740Z,8.90
2018-01-23T15:36:12.608Z,8.90
2018-01-23T15:38:40.475Z,8.90
2018-01-23T15:41:08.240Z,8.90
2018-01-23T15:43:36.107Z,8.80
2018-01-23T15:46:03.975Z,8.80
2018-01-23T15:48:32.662Z,8.80
2018-01-23T15:51:00.427Z,8.70
2018-01-23T15:53:28.298Z,8.70
2018-01-23T15:55:56.162Z,8.80
2018-01-23T15:58:24.032Z,8.70
2018-01-23T16:00:51.748Z,8.70
2018-01-23T16:03:19.558Z,8.70
2018-01-23T16:05:47.285Z,8.70
2018-01-23T16:08:15.088Z,8.70
2018-01-23T16:10:42.802Z,8.70
2018-01-23T16:13:11.281Z,8.70
2018-01-23T16:15:39.770Z,8.70
2018-01-23T16:18:07.486Z,8.70
2018-01-23T16:20:35.345Z,8.70
2018-01-23T16:23:03.215Z,8.60
2018-01-23T16:25:30.949Z,8.60
2018-01-23T16:27:58.666Z,8.60
2018-01-23T16:30:26.508Z,8.60
2018-01-23T16:32:54.214Z,8.60
2018-01-23T16:35:22.689Z,8.50
2018-01-23T16:37:51.474Z,8.60
2018-01-23T16:40:19.269Z,8.60
2018-01-23T16:42:46.967Z,8.60
2018-01-23T16:45:14.839Z,8.60
2018-01-23T16:47:42.540Z,8.60
2018-01-23T16:50:11.182Z,8.70
2018-01-23T16:52:38.888Z,8.70
2018-01-23T16:55:07.536Z,8.60
2018-01-23T16:57:35.298Z,8.60
2018-01-23T17:00:03.038Z,8.60
2018-01-23T17:02:30.789Z,8.60
2018-01-23T17:04:58.501Z,8.50
2018-01-23T17:07:26.201Z,8.50
2018-01-23T17:09:54.691Z,8.50
2018-01-23T17:12:23.326Z,8.50
2018-01-23T17:14:51.192Z,8.50
2018-01-23T17:17:19.060Z,8.50
2018-01-23T17:19:46.767Z,8.50
2018-01-23T17:22:15.237Z,8.40
2018-01-23T17:24:43.890Z,8.50
2018-01-23T17:27:11.757Z,8.50
2018-01-23T17:29:39.625Z,8.50
2018-01-23T17:32:07.375Z,8.50
2018-01-23T17:34:35.259Z,8.50
2018-01-23T17:37:02.976Z,8.40
2018-01-23T17:39:30.695Z,8.40
2018-01-23T17:41:58.426Z,8.50
2018-01-23T17:44:26.215Z,8.50
2018-01-23T17:46:54.082Z,8.50
2018-01-23T17:49:21.949Z,8.50
2018-01-23T17:51:49.677Z,8.40
2018-01-23T17:54:17.390Z,8.40
2018-01-23T17:56:45.246Z,8.40
2018-01-23T17:59:13.112Z,8.40
2018-01-23T18:01:40.978Z,8.40
2018-01-23T18:04:08.682Z,8.40
2018-01-23T18:06:37.225Z,8.40
2018-01-23T18:09:05.092Z,8.40
2018-01-23T18:11:32.959Z,8.40
2018-01-23T18:14:00.827Z,8.40
2018-01-23T18:16:28.694Z,8.40
2018-01-23T18:18:56.561Z,8.50
2018-01-23T18:21:24.429Z,8.50
2018-01-23T18:23:52.145Z,8.40
2018-01-23T18:26:19.959Z,8.50
2018-01-23T18:28:47.826Z,8.50
2018-01-23T18:31:15.693Z,8.40
2018-01-23T18:33:43.402Z,8.40
2018-01-23T18:36:11.874Z,8.50
2018-01-23T18:38:40.354Z,8.50
2018-01-23T18:41:08.186Z,8.50
2018-01-23T18:43:35.881Z,8.50
2018-01-23T18:46:03.594Z,8.50
2018-01-23T18:48:31.312Z,8.50
2018-01-23T18:50:59.773Z,8.50
2018-01-23T18:53:27.625Z,8.50
2018-01-23T18:55:55.498Z,8.50
2018-01-23T18:58:23.361Z,8.50
2018-01-23T19:00:51.990Z,8.50
2018-01-23T19:03:20.637Z,8.40
2018-01-23T19:05:48.498Z,8.40
2018-01-23T19:08:16.365Z,8.40
2018-01-23T19:10:44.381Z,8.40
2018-01-23T19:13:12.856Z,8.30
2018-01-23T19:15:41.333Z,8.30
2018-01-23T19:18:09.823Z,8.20
2018-01-23T19:20:38.335Z,8.30
2018-01-23T19:23:06.054Z,8.20
2018-01-23T19:25:33.897Z,8.20
2018-01-23T19:28:01.610Z,8.30
2018-01-23T19:30:30.082Z,8.30
2018-01-23T19:32:58.549Z,8.30
2018-01-23T19:35:26.342Z,8.30
2018-01-23T19:37:54.059Z,8.30
2018-01-23T19:40:21.762Z,8.30
2018-01-23T19:42:50.254Z,8.40
2018-01-23T19:45:18.062Z,8.40
2018-01-23T19:47:45.929Z,8.40
2018-01-23T19:50:13.796Z,8.40
2018-01-23T19:52:41.664Z,8.40
2018-01-23T19:55:09.531Z,8.40
2018-01-23T19:57:37.330Z,8.40
2018-01-23T20:00:05.988Z,8.30
2018-01-23T20:02:33.849Z,8.30
2018-01-23T20:05:01.555Z,8.30
2018-01-23T20:07:30.043Z,8.30
2018-01-23T20:09:58.512Z,8.20
2018-01-23T20:12:26.997Z,8.20
2018-01-23T20:14:55.489Z,8.30
2018-01-23T20:17:24.023Z,8.20
2018-01-23T20:19:51.891Z,8.30
2018-01-23T20:22:19.862Z,8.30
2018-01-23T20:24:47.570Z,8.20
2018-01-23T20:27:16.047Z,8.30
2018-01-23T20:29:44.590Z,8.40
2018-01-23T20:32:12.456Z,8.30
2018-01-23T20:34:43.068Z,8.30
2018-01-23T20:37:14.393Z,8.40
2018-01-23T20:39:53.933Z,8.40
2018-01-23T20:42:28.353Z,8.50
2018-01-23T20:44:59.924Z,8.50
2018-01-23T20:47:34.232Z,8.60
2018-01-23T20:50:06.880Z,8.60
2018-01-23T20:52:40.579Z,8.70
2018-01-23T20:55:13.638Z,8.70
2018-01-23T20:57:45.484Z,8.70
2018-01-23T21:00:17.355Z,8.70
2018-01-23T21:02:49.732Z,8.80
2018-01-23T21:05:21.778Z,8.80
2018-01-23T21:07:53.547Z,8.80
2018-01-23T21:10:25.145Z,8.80
2018-01-23T21:12:59.791Z,8.80
2018-01-23T21:15:32.848Z,8.80
2018-01-23T21:18:04.330Z,8.70
2018-01-23T21:20:36.435Z,8.70
2018-01-23T21:23:07.946Z,8.70
2018-01-23T21:25:44.559Z,8.60
2018-01-23T21:28:16.081Z,8.60
2018-01-23T21:30:48.237Z,8.60
2018-01-23T21:33:20.618Z,8.60
2018-01-23T21:36:12.854Z,8.60
2018-01-23T21:39:00.078Z,8.60
2018-01-23T21:41:45.869Z,8.60
2018-01-23T21:44:28.876Z,8.60
2018-01-23T21:47:06.524Z,8.60
2018-01-23T21:49:36.671Z,8.60
2018-01-23T21:52:06.781Z,8.60
2018-01-23T21:54:37.109Z,8.60
2018-01-23T21:57:07.156Z,8.60
2018-01-23T21:59:39.466Z,8.60
2018-01-23T22:02:10.158Z,8.60
2018-01-23T22:04:40.204Z,8.60
2018-01-23T22:07:11.211Z,8.60
2018-01-23T22:09:41.633Z,8.60
2018-01-23T22:12:11.628Z,8.60
2018-01-23T22:14:42.154Z,8.60
2018-01-23T22:17:12.242Z,8.60
2018-01-23T22:19:42.791Z,8.60
2018-01-23T22:22:13.208Z,8.60
2018-01-23T22:24:43.171Z,8.60
2018-01-23T22:27:14.634Z,8.60
2018-01-23T22:29:45.529Z,8.60
2018-01-23T22:32:15.053Z,8.60
2018-01-23T22:34:44.794Z,8.60
2018-01-23T22:37:15.782Z,8.70
2018-01-23T22:39:46.241Z,8.70
2018-01-23T22:42:16.252Z,8.80
2018-01-23T22:44:46.076Z,8.80
2018-01-23T22:47:16.060Z,8.80
2018-01-23T22:49:46.137Z,8.80
2018-01-23T22:52:16.404Z,8.80
2018-01-23T22:54:46.384Z,8.80
2018-01-23T22:57:16.376Z,8.80
2018-01-23T22:59:46.459Z,8.80
2018-01-23T23:02:16.662Z,8.70
2018-01-23T23:04:47.411Z,8.80
2018-01-23T23:07:17.620Z,8.70
2018-01-23T23:09:47.670Z,8.80
2018-01-23T23:12:18.211Z,8.70
2018-01-23T23:14:47.605Z,8.70
2018-01-23T23:17:18.211Z,8.80
2018-01-23T23:19:48.448Z,8.90
2018-01-23T23:22:18.594Z,8.80
2018-01-23T23:24:47.574Z,8.90
2018-01-23T23:27:16.872Z,8.80
2018-01-23T23:29:47.469Z,8.80
2018-01-23T23:32:17.820Z,8.70
2018-01-23T23:34:47.666Z,8.70
2018-01-23T23:37:17.778Z,8.70
2018-01-23T23:39:48.125Z,8.80
2018-01-23T23:42:18.122Z,8.70
2018-01-23T23:44:48.248Z,8.80
2018-01-23T23:47:17.532Z,8.80
2018-01-23T23:49:46.011Z,8.80
2018-01-23T23:52:14.286Z,8.80
2018-01-23T23:54:42.256Z,8.70
2018-01-23T23:57:10.226Z,8.70
2018-01-23T23:59:38.372Z,8.70
